• Join FlightAware (Why Join?)
  • Login
  • US Flag 
04:34AM EDT


 

Airport Tracker/Info


-or-


 

Live Flight TrackerFlight Track Log ✈ SWA1521 ✈ 06-Oct-2013 ✈ KGEG - KPHX

Flight Track Log - Related Links

Times and Time Zones

All times are in EDT time to prevent confusion due to time zone crossing. See the SWA1521 flight status page for this flight to view local times or setup timezone preferences in your user account.

Time Position Orientation Groundspeed Altitude Reporting Facility
EDT Latitude Longitude Course Direction KTS MPH feet Rate Location/Type
03:34PM 47.6453 -117.4997 75° East 186 214 3,400  Level Seattle Center
03:35PM 47.6633 -117.3992 75° East 242 278 6,000 2,580 Climbing Seattle Center
03:36PM 47.6031 -117.3467 150° Southeast 258 297 8,700 2,580 Climbing Seattle Center
03:37PM 47.5317 -117.2914 152° Southeast 283 326 11,300 2,400 Climbing Seattle Center
03:38PM 47.4567 -117.2350 153° Southeast 302 348 13,700 1,860 Climbing Seattle Center
03:39PM 47.3647 -117.1644 153° Southeast 354 407 15,100 1,500 Climbing Seattle Center
03:40PM 47.2669 -117.0936 154° Southeast 388 447 16,800 1,620 Climbing Seattle Center
03:41PM 47.1775 -117.0450 160° South 406 467 18,400 1,980 Climbing Seattle Center
03:42PM 47.0492 -116.9697 158° South 414 476 20,900 2,280 Climbing Seattle Center
03:43PM 46.9425 -116.9067 158° South 414 476 23,100 1,860 Climbing Seattle Center
03:44PM 46.8342 -116.8439 158° South 418 481 24,800 1,560 Climbing Seattle Center
03:45PM 46.7250 -116.7811 158° South 421 484 26,400 1,320 Climbing Seattle Center
03:46PM 46.6142 -116.7161 158° South 428 493 27,600 1,200 Climbing Seattle Center
03:47PM 46.4992 -116.6508 159° South 438 504 28,900 1,440 Climbing Seattle Center
03:48PM 46.3853 -116.5875 159° South 441 507 30,600 1,380 Climbing Seattle Center
03:49PM 46.2731 -116.5203 158° South 438 504 31,800 1,080 Climbing Seattle Center
03:50PM 46.1586 -116.4567 159° South 434 499 32,900 1,080 Climbing Seattle Center
03:51PM 46.0486 -116.3933 158° South 436 502 34,100 1,020 Climbing Seattle Center
03:52PM 45.9147 -116.3189 159° South 432 497 35,000 420 Climbing Seattle Center
03:53PM 45.8022 -116.2533 158° South 437 503 35,000  Level Seattle Center
03:54PM 45.6906 -116.1906 159° South 436 502 35,000  Level Seattle Center
03:55PM 45.5750 -116.1233 158° South 436 502 35,000  Level Seattle Center
03:56PM 45.4631 -116.0639 160° South 432 497 35,000  Level Seattle Center
03:57PM 45.3511 -116.0019 159° South 431 496 35,000  Level Seattle Center
03:58PM 45.2397 -115.9406 159° South 431 496 35,000  Level Seattle Center
03:59PM 45.1283 -115.8803 159° South 430 495 35,000  Level Seattle Center
04:00PM 45.0164 -115.8203 159° South 429 494 35,000  Level Seattle Center
04:01PM 44.9042 -115.7581 159° South 431 496 35,000  Level Seattle Center
04:02PM 44.7914 -115.7008 160° South 430 495 35,000  Level Seattle Center
04:03PM 44.6789 -115.6386 159° South 433 498 35,000  Level Seattle Center
04:04PM 44.5653 -115.5789 159° South 434 499 35,000  Level Seattle Center
04:05PM 44.4522 -115.5181 159° South 434 499 35,000  Level Seattle Center
04:07PM 44.2936 -115.4347 159° South 436 502 35,000  Level Salt Lake Center
04:08PM 44.1803 -115.3739 159° South 435 501 35,000  Level Salt Lake Center
04:09PM 44.0664 -115.3150 160° South 435 501 35,000  Level Salt Lake Center
04:10PM 43.9531 -115.2564 160° South 435 501 35,000  Level Salt Lake Center
04:11PM 43.8172 -115.1850 159° South 435 501 35,000  Level Salt Lake Center
04:12PM 43.7039 -115.1267 160° South 436 502 35,000  Level Salt Lake Center
04:13PM 43.5906 -115.0672 159° South 436 502 35,000  Level Salt Lake Center
04:14PM 43.4761 -115.0089 160° South 438 504 35,000  Level Salt Lake Center
04:15PM 43.3633 -114.9503 159° South 434 499 35,000  Level Salt Lake Center
04:16PM 43.2494 -114.8925 160° South 435 501 35,000  Level Salt Lake Center
04:17PM 43.1358 -114.8339 159° South 437 503 35,000  Level Salt Lake Center
04:18PM 42.9997 -114.7653 160° South 436 502 35,000  Level Salt Lake Center
04:19PM 42.8856 -114.7075 160° South 437 503 35,000  Level Salt Lake Center
04:20PM 42.7717 -114.6511 160° South 435 501 35,000  Level Salt Lake Center
04:21PM 42.6592 -114.5939 159° South 433 498 35,000  Level Salt Lake Center
04:22PM 42.5400 -114.5333 159° South 433 498 35,000  Level Salt Lake Center
04:23PM 42.4267 -114.4781 160° South 434 499 35,000  Level Salt Lake Center
04:24PM 42.3139 -114.4211 160° South 433 498 35,000  Level Salt Lake Center
04:25PM 42.2008 -114.3667 160° South 433 498 35,000  Level Salt Lake Center
04:26PM 42.0875 -114.3108 160° South 432 497 35,000  Level Salt Lake Center
04:27PM 41.9528 -114.2444 160° South 432 497 35,000  Level Salt Lake Center
04:28PM 41.8383 -114.1897 160° South 435 501 35,000  Level Salt Lake Center
04:29PM 41.7242 -114.1347 160° South 437 503 35,000  Level Salt Lake Center
04:30PM 41.6108 -114.0797 160° South 436 502 35,000  Level Salt Lake Center
04:31PM 41.4981 -114.0247 160° South 434 499 35,000  Level Salt Lake Center
04:32PM 41.3844 -113.9708 160° South 435 501 35,000  Level Salt Lake Center
04:33PM 41.2478 -113.9056 160° South 436 502 35,000  Level Salt Lake Center
04:34PM 41.1350 -113.8519 160° South 434 499 35,000  Level Salt Lake Center
04:36PM 41.0222 -113.7981 160° South 433 498 35,000  Level Salt Lake Center
04:37PM 40.9100 -113.7456 161° South 431 496 35,000  Level Salt Lake Center
04:38PM 40.7975 -113.6914 160° South 431 496 35,000  Level Salt Lake Center
04:39PM 40.6814 -113.6378 161° South 437 503 35,000  Level Salt Lake Center
04:40PM 40.5450 -113.5747 161° South 435 501 35,000  Level Salt Lake Center
04:41PM 40.4319 -113.5219 160° South 433 498 35,000  Level Salt Lake Center
04:42PM 40.3192 -113.4692 160° South 433 498 35,000  Level Salt Lake Center
04:43PM 40.2042 -113.4175 161° South 437 503 35,000  Level Salt Lake Center
04:44PM 40.0906 -113.3658 161° South 434 499 35,000  Level Salt Lake Center
04:45PM 39.9758 -113.3125 160° South 438 504 35,000  Level Salt Lake Center
04:46PM 39.8389 -113.2503 161° South 436 502 35,000  Level Salt Lake Center
04:47PM 39.7356 -113.2028 161° South 439 505 35,000  Level Salt Lake Center
04:48PM 39.6214 -113.1508 161° South 437 503 35,000  Level Salt Lake Center
04:49PM 39.4833 -113.0883 161° South 439 505 35,000  Level Salt Lake Center
04:50PM 39.3683 -113.0367 161° South 438 504 35,000  Level Salt Lake Center
04:51PM 39.2533 -112.9861 161° South 437 503 35,000  Level Salt Lake Center
04:52PM 39.1386 -112.9369 162° South 436 502 35,000  Level Salt Lake Center
04:53PM 39.0189 -112.9106 170° South 436 502 35,000  Level Salt Lake Center
04:54PM 38.8983 -112.8903 173° South 438 504 35,000  Level Salt Lake Center
04:55PM 38.7786 -112.8686 172° South 436 502 35,000  Level Salt Lake Center
04:56PM 38.6333 -112.8425 172° South 438 504 35,000  Level Salt Lake Center
04:57PM 38.5119 -112.8181 171° South 440 506 35,000  Level Salt Lake Center
04:58PM 38.3906 -112.7975 172° South 441 507 35,000  Level Salt Lake Center
04:59PM 38.2686 -112.7778 173° South 441 507 35,000  Level Salt Lake Center
05:00PM 38.1467 -112.7544 171° South 443 510 35,000  Level Salt Lake Center
05:01PM 38.0239 -112.7336 172° South 443 510 35,000  Level Salt Lake Center
05:02PM 37.9019 -112.7122 172° South 441 507 35,000  Level Salt Lake Center
05:03PM 37.7781 -112.6903 172° South 444 511 35,000  Level Salt Lake Center
05:04PM 37.6536 -112.6672 172° South 444 511 35,000  Level Salt Lake Center
05:05PM 37.5275 -112.6458 172° South 446 513 35,000 -120 Level Salt Lake Center
05:06PM 37.3772 -112.6203 172° South 448 516 34,800 -360 Descending Salt Lake Center
05:07PM 37.2533 -112.5992 172° South 448 516 34,300 -540 Descending Salt Lake Center
05:08PM 37.1300 -112.5781 172° South 445 512 33,800 -480 Descending Salt Lake Center
05:09PM 37.0061 -112.5564 172° South 448 516 33,400 -480 Descending Salt Lake Center
05:11PM 36.8819 -112.5361 173° South 448 516 32,900 -540 Descending Salt Lake Center
05:12PM 36.7592 -112.5142 172° South 447 514 32,400 -540 Descending Salt Lake Center
05:13PM 36.6353 -112.4939 173° South 447 514 31,900 -480 Descending Salt Lake Center
05:14PM 36.5119 -112.4722 172° South 448 516 31,500 -420 Descending Salt Lake Center
05:15PM 36.3378 -112.4428 172° South 450 518 31,000 -360 Descending Los Angeles Center
05:16PM 36.2139 -112.4208 172° South 449 517 30,700 -420 Descending Los Angeles Center
05:17PM 36.0878 -112.4022 173° South 454 522 30,200 -480 Descending Los Angeles Center
05:18PM 35.9656 -112.4064 182° South 441 507 29,700 -480 Descending Los Angeles Center
05:19PM 35.8428 -112.4114 182° South 435 501 29,200 -360 Descending Los Angeles Center
05:20PM 35.6967 -112.4194 183° South 436 502 29,000 -120 Descending Los Angeles Center
05:21PM 35.5728 -112.4253 182° South 442 509 29,000  Level Los Angeles Center
05:22PM 35.4472 -112.4353 184° South 447 514 29,000  Level Los Angeles Center
05:23PM 35.2933 -112.4150 174° South 460 529 29,000  Level Albuquerque Center
05:24PM 35.1672 -112.3875 170° South 460 529 29,000  Level Albuquerque Center
05:25PM 35.0425 -112.3606 170° South 456 525 29,000 -1,020 Level Albuquerque Center
05:26PM 34.9189 -112.3353 170° South 453 521 26,900 -1,500 Descending Albuquerque Center
05:27PM 34.8003 -112.3089 170° South 440 506 26,000 -1,500 Descending Albuquerque Center
05:28PM 34.6644 -112.2789 170° South 434 499 23,900 -2,100 Descending Albuquerque Center
05:29PM 34.6843 -112.2695 170° South  Level FlightAware Approximate
05:30PM 34.5486 -112.2536 170° South 428 493 21,700  Level Albuquerque Center
05:31PM 34.4403 -112.2297 170° South 408 470 19,900 -1,740 Descending Albuquerque Center
05:32PM 34.3358 -112.2028 168° South 393 452 18,200 -1,800 Descending Albuquerque Center
05:33PM 34.2361 -112.1756 167° South 377 434 16,300 -2,040 Descending Albuquerque Center
05:34PM 34.1172 -112.1444 168° South 360 414 14,100 -1,740 Descending Albuquerque Center
05:35PM 34.0256 -112.1431 179° South 344 396 12,800 -1,440 Descending Albuquerque Center
05:36PM 33.9342 -112.1533 185° South 335 386 11,200 -1,380 Descending Albuquerque Center
05:37PM 33.8478 -112.1681 188° South 320 368 10,000 -600 Descending Albuquerque Center
05:38PM 33.7667 -112.1861 190° South 302 348 10,000 -240 Level Albuquerque Center
05:39PM 33.6733 -112.2050 190° South 286 329 9,600 -780 Descending Albuquerque Center
05:40PM 33.6044 -112.2139 186° South 254 292 8,500 -1,260 Descending Albuquerque Center
05:41PM 33.5361 -112.2203 184° South 248 285 7,100 -1,800 Descending Albuquerque Center
05:42PM 33.4711 -112.2258 184° South 237 273 4,800 -2,040 Descending Albuquerque Center
05:43PM 33.4408 -112.1717 124° Southeast 230 265 2,900 -1,260 Descending Albuquerque Center
05:44PM 33.4333 -112.1167 99° East 149 171 2,500 -600 Descending Phoenix TRACON
05:45PM 33.4333 -112.0667 90° East 150 173 1,800 -720 Descending Phoenix TRACON
05:48PM 33.4343 -112.0116 270° West  Level Estimated